Time;durP1;ratioP1;P1;durP2;ratioP2;P2;SDS_P1;SDS_P2;PMS_P1;PMS_P2;Temp;Humidity;BMP_temperature;BMP_pressure;BME280_temperature;BME280_humidity;BME280_pressure;Samples;Min_cycle;Max_cycle;Signal;HPM_P1;HPM_P2
2021/11/13 00:01:22;;;;;;;46.00;26.13;;;;;;;8.76;100.00;100948.03;5014546;28;20476;-86
2021/11/13 00:03:47;;;;;;;55.17;26.33;;;;;;;8.76;100.00;100941.84;5014135;28;20142;-86
2021/11/13 00:06:12;;;;;;;55.25;27.77;;;;;;;8.75;100.00;100942.84;5014231;28;20033;-86
2021/11/13 00:08:38;;;;;;;57.17;28.73;;;;;;;8.76;100.00;100933.91;5014106;28;20073;-85
2021/11/13 00:11:04;;;;;;;56.25;27.30;;;;;;;8.76;100.00;100929.44;5014160;28;20052;-85
2021/11/13 00:13:30;;;;;;;48.55;26.23;;;;;;;8.79;100.00;100928.34;5013653;28;20034;-83
2021/11/13 00:15:55;;;;;;;46.65;27.02;;;;;;;8.78;100.00;100927.50;5014055;28;20111;-82
2021/11/13 00:18:21;;;;;;;54.33;27.38;;;;;;;8.77;100.00;100930.28;5014261;28;20034;-82
2021/11/13 00:20:48;;;;;;;61.15;28.35;;;;;;;8.73;100.00;100911.13;5013426;28;20498;-82
2021/11/13 00:23:15;;;;;;;63.90;28.73;;;;;;;8.74;100.00;100912.78;5013738;28;20030;-83
2021/11/13 00:25:40;;;;;;;56.95;26.92;;;;;;;8.77;100.00;100915.19;5013288;28;20108;-84
2021/11/13 00:28:05;;;;;;;52.00;26.30;;;;;;;8.79;100.00;100917.72;4996353;28;20030;-82
2021/11/13 00:30:31;;;;;;;54.38;26.85;;;;;;;8.77;100.00;100909.88;5013611;28;20034;-81
2021/11/13 00:32:56;;;;;;;55.33;28.35;;;;;;;8.76;100.00;100897.63;5014543;28;20470;-82
2021/11/13 00:35:22;;;;;;;49.13;25.23;;;;;;;8.78;100.00;100895.66;4996217;28;20030;-83
2021/11/13 00:37:47;;;;;;;50.42;25.33;;;;;;;8.79;100.00;100896.50;5013574;28;20030;-85
2021/11/13 00:40:17;;;;;;;50.50;25.95;;;;;;;8.78;100.00;100886.88;5013577;28;20022;-83
2021/11/13 00:42:43;;;;;;;52.67;26.70;;;;;;;8.77;100.00;100896.63;5013252;28;20113;-82
2021/11/13 00:45:09;;;;;;;53.00;25.73;;;;;;;8.77;100.00;100895.78;5013549;28;20104;-82
2021/11/13 00:47:34;;;;;;;53.83;26.80;;;;;;;8.78;100.00;100889.53;5012510;28;20442;-81
2021/11/13 00:50:00;;;;;;;48.00;24.33;;;;;;;8.78;100.00;100894.84;5013416;28;20037;-83
2021/11/13 00:52:25;;;;;;;46.60;23.85;;;;;;;8.80;100.00;100891.06;5013565;28;20030;-82
2021/11/13 00:54:51;;;;;;;50.72;24.80;;;;;;;8.82;100.00;100888.28;5013073;28;20068;-82
2021/11/13 00:57:16;;;;;;;43.92;23.15;;;;;;;8.83;100.00;100892.63;5013620;28;20061;-82
2021/11/13 00:59:41;;;;;;;51.00;24.73;;;;;;;8.83;100.00;100898.78;5012651;28;20037;-82
2021/11/13 01:02:07;;;;;;;44.88;24.58;;;;;;;8.86;100.00;100895.03;5013300;28;20030;-82
2021/11/13 01:04:33;;;;;;;50.28;23.95;;;;;;;8.85;100.00;100888.03;5012928;28;20092;-79
2021/11/13 01:06:59;;;;;;;49.47;23.58;;;;;;;8.86;100.00;100888.88;5013314;28;20533;-82
2021/11/13 01:09:25;;;;;;;50.42;22.52;;;;;;;8.87;100.00;100882.59;5013337;28;20097;-83
2021/11/13 01:11:50;;;;;;;40.88;21.77;;;;;;;8.91;100.00;100884.91;5012821;28;20110;-84
2021/11/13 01:14:16;;;;;;;42.33;22.35;;;;;;;8.90;100.00;100874.41;5013039;28;20061;-82
2021/11/13 01:16:42;;;;;;;42.97;22.15;;;;;;;8.92;100.00;100875.94;5012598;28;20065;-83
2021/11/13 01:19:08;;;;;;;48.67;21.58;;;;;;;8.95;100.00;100874.84;5012980;28;20034;-82
2021/11/13 01:21:33;;;;;;;38.92;20.80;;;;;;;8.92;100.00;100875.13;4995445;28;20034;-83
2021/11/13 01:23:59;;;;;;;40.60;22.13;;;;;;;8.94;100.00;100873.16;5013149;28;20036;-84
2021/11/13 01:26:24;;;;;;;42.70;22.52;;;;;;;8.95;100.00;100874.84;5013237;28;20113;-84
2021/11/13 01:28:50;;;;;;;47.05;21.80;;;;;;;8.94;100.00;100871.38;5012584;28;20390;-84
2021/11/13 01:31:15;;;;;;;33.45;18.23;;;;;;;9.02;100.00;100876.03;5013077;28;20076;-83
2021/11/13 01:33:43;;;;;;;41.45;18.70;;;;;;;9.04;100.00;100868.78;5012747;28;20076;-84
2021/11/13 01:36:09;;;;;;;36.63;17.40;;;;;;;9.09;100.00;100871.03;5012827;28;20486;-83
2021/11/13 01:38:36;;;;;;;38.72;17.45;;;;;;;9.11;100.00;100867.28;5012900;28;20034;-83
2021/11/13 01:41:03;;;;;;;43.97;16.50;;;;;;;9.13;100.00;100875.13;5012868;28;20026;-82
2021/11/13 01:43:32;;;;;;;39.00;15.93;;;;;;;9.17;100.00;100866.78;5012710;28;20471;-83
2021/11/13 01:46:00;;;;;;;48.33;16.85;;;;;;;9.16;100.00;100864.25;5012232;28;20030;-82
2021/11/13 01:48:25;;;;;;;38.90;15.15;;;;;;;9.13;100.00;100868.00;5012761;28;20487;-83
2021/11/13 01:50:51;;;;;;;40.90;14.98;;;;;;;9.11;100.00;100867.28;5011450;28;20026;-83
2021/11/13 01:53:16;;;;;;;43.40;15.65;;;;;;;9.11;100.00;100861.16;5013030;28;20433;-83
2021/11/13 01:55:42;;;;;;;43.00;13.35;;;;;;;9.18;100.00;100862.28;5012615;28;20034;-83
2021/11/13 01:58:13;;;;;;;43.25;11.82;;;;;;;9.23;100.00;100862.75;5012694;28;20034;-84
2021/11/13 02:00:41;;;;;;;30.20;10.38;;;;;;;9.27;100.00;100861.53;5014836;28;20113;-79
2021/11/13 02:03:07;;;;;;;37.55;10.27;;;;;;;9.30;100.00;100860.41;5016771;28;20105;-83
2021/11/13 02:05:33;;;;;;;44.78;8.15;;;;;;;9.33;100.00;100860.16;5016817;28;20165;-83
2021/11/13 02:07:58;;;;;;;37.50;8.18;;;;;;;9.34;100.00;100865.38;5017964;28;20612;-82
2021/11/13 02:10:26;;;;;;;32.45;8.05;;;;;;;9.37;100.00;100860.75;5016658;28;20068;-82
2021/11/13 02:12:53;;;;;;;40.45;7.90;;;;;;;9.40;100.00;100853.34;5016144;28;20030;-82
2021/11/13 02:15:21;;;;;;;27.73;6.20;;;;;;;9.47;100.00;100859.00;5016295;28;20046;-80
2021/11/13 02:17:46;;;;;;;45.88;6.30;;;;;;;9.50;100.00;100853.44;4998341;28;20406;-83
2021/11/13 02:20:24;;;;;;;35.00;6.10;;;;;;;9.53;100.00;100853.16;5016274;28;20490;-82
2021/11/13 02:22:51;;;;;;;23.17;5.60;;;;;;;9.56;100.00;100854.72;5015937;28;20033;-83
2021/11/13 02:25:18;;;;;;;39.22;5.82;;;;;;;9.61;100.00;100849.84;5016016;28;20430;-82
2021/11/13 02:27:44;;;;;;;32.95;5.47;;;;;;;9.65;100.00;100849.44;5015990;28;20030;-84
2021/11/13 02:30:11;;;;;;;44.53;5.90;;;;;;;9.64;100.00;100853.09;5016457;28;20085;-82
2021/11/13 02:32:37;;;;;;;48.40;5.43;;;;;;;9.67;100.00;100849.31;5016434;28;20429;-81
2021/11/13 02:35:05;;;;;;;45.78;6.18;;;;;;;9.72;100.00;100849.75;5015646;28;20042;-82
2021/11/13 02:37:31;;;;;;;36.97;4.80;;;;;;;9.72;100.00;100857.72;5016082;28;20121;-81
2021/11/13 02:39:56;;;;;;;27.95;4.03;;;;;;;9.71;100.00;100856.03;4998052;28;20120;-84
2021/11/13 02:42:23;;;;;;;39.08;5.88;;;;;;;9.73;100.00;100848.75;5016261;28;20504;-81
2021/11/13 02:44:52;;;;;;;31.27;4.93;;;;;;;9.74;100.00;100846.97;5015746;28;20060;-81
2021/11/13 02:47:19;;;;;;;35.80;5.10;;;;;;;9.75;100.00;100848.63;4998459;28;20459;-82
2021/11/13 02:49:48;;;;;;;31.08;5.00;;;;;;;9.79;100.00;100852.72;5015371;28;20100;-80
2021/11/13 02:52:14;;;;;;;30.58;4.63;;;;;;;9.81;100.00;100846.28;4998161;28;20486;-82
2021/11/13 02:54:44;;;;;;;43.42;4.70;;;;;;;9.79;100.00;100842.06;5015648;28;20041;-82
2021/11/13 02:57:10;;;;;;;27.25;4.50;;;;;;;9.76;100.00;100832.56;5015741;28;20042;-83
2021/11/13 02:59:49;;;;;;;34.13;4.35;;;;;;;9.75;100.00;100841.53;4997865;28;20030;-83
2021/11/13 03:02:16;;;;;;;29.45;3.90;;;;;;;9.79;100.00;100842.94;5015603;28;20030;-85
2021/11/13 03:04:42;;;;;;;30.90;3.97;;;;;;;9.80;100.00;100843.78;5015396;28;20480;-85
2021/11/13 03:07:08;;;;;;;28.23;4.03;;;;;;;9.80;100.00;100838.47;5015026;28;20034;-83
2021/11/13 03:09:35;;;;;;;28.17;3.97;;;;;;;9.76;100.00;100845.84;5015718;28;20038;-84
2021/11/13 03:12:00;;;;;;;31.50;4.50;;;;;;;9.76;100.00;100853.81;5014386;28;20149;-84
2021/11/13 03:14:26;;;;;;;34.45;4.38;;;;;;;9.77;100.00;100852.84;5015441;28;20022;-85
2021/11/13 03:16:52;;;;;;;28.83;4.57;;;;;;;9.77;100.00;100858.16;5014847;28;20034;-85
2021/11/13 03:19:18;;;;;;;33.75;4.50;;;;;;;9.80;100.00;100860.53;5015282;28;20033;-84
2021/11/13 03:21:43;;;;;;;32.67;3.95;;;;;;;9.85;100.00;100855.69;5015410;28;20061;-83
2021/11/13 03:24:09;;;;;;;23.65;4.45;;;;;;;9.86;100.00;100852.03;5014843;28;20074;-85
2021/11/13 03:26:37;;;;;;;25.80;3.53;;;;;;;9.84;100.00;100843.38;5015028;28;20065;-85
2021/11/13 03:29:09;;;;;;;25.27;3.97;;;;;;;9.82;100.00;100858.63;4997032;28;20048;-85
2021/11/13 03:31:35;;;;;;;27.50;3.95;;;;;;;9.84;100.00;100850.50;5015010;28;20092;-83
2021/11/13 03:34:00;;;;;;;32.28;4.38;;;;;;;9.84;100.00;100861.13;5014396;28;20441;-82
2021/11/13 03:36:26;;;;;;;25.92;3.50;;;;;;;9.84;100.00;100856.66;5015368;28;20069;-84
2021/11/13 03:38:52;;;;;;;26.52;3.30;;;;;;;9.82;100.00;100860.41;4997152;28;20034;-85
2021/11/13 03:41:19;;;;;;;18.83;2.65;;;;;;;9.80;100.00;100863.19;5015097;28;20037;-83
2021/11/13 03:43:45;;;;;;;17.02;2.45;;;;;;;9.77;100.00;100863.47;5014837;28;20073;-86
2021/11/13 03:46:12;;;;;;;11.73;2.20;;;;;;;9.75;100.00;100859.25;5014429;28;20258;-87
2021/11/13 03:48:37;;;;;;;25.90;3.10;;;;;;;9.68;100.00;100865.09;5015314;28;20049;-84
2021/11/13 03:51:04;;;;;;;18.92;2.80;;;;;;;9.63;100.00;100870.00;5015103;28;20041;-85
2021/11/13 03:53:30;;;;;;;21.33;2.95;;;;;;;9.59;100.00;100867.72;5014915;28;20030;-86
2021/11/13 03:55:55;;;;;;;17.58;2.47;;;;;;;9.60;100.00;100864.06;5014123;28;20041;-86
2021/11/13 03:58:21;;;;;;;24.20;2.88;;;;;;;9.57;100.00;100874.97;5014533;28;20041;-85
2021/11/13 04:00:46;;;;;;;19.48;2.97;;;;;;;9.58;100.00;100879.31;5014634;28;20040;-80
2021/11/13 04:03:13;;;;;;;14.57;3.08;;;;;;;9.58;100.00;100882.81;5013934;28;20080;-83
2021/11/13 04:05:38;;;;;;;22.85;3.03;;;;;;;9.57;100.00;100883.81;4997012;28;20044;-84
2021/11/13 04:08:04;;;;;;;13.57;2.55;;;;;;;9.56;100.00;100884.75;4996470;28;20046;-85
2021/11/13 04:10:30;;;;;;;11.73;2.75;;;;;;;9.56;100.00;100881.28;5014449;28;20038;-82
2021/11/13 04:12:56;;;;;;;15.77;3.22;;;;;;;9.56;100.00;100887.41;5013950;28;20030;-84
2021/11/13 04:15:21;;;;;;;13.25;2.63;;;;;;;9.53;100.00;100885.88;5014218;28;20057;-84
2021/11/13 04:17:48;;;;;;;13.98;2.58;;;;;;;9.53;100.00;100888.53;4996381;28;20066;-83
2021/11/13 04:20:14;;;;;;;19.38;2.83;;;;;;;9.53;100.00;100890.34;5013667;28;20112;-83
2021/11/13 04:22:40;;;;;;;21.20;2.95;;;;;;;9.56;100.00;100890.06;4995758;28;20534;-85
2021/11/13 04:25:06;;;;;;;10.77;2.35;;;;;;;9.58;100.00;100901.41;5013753;28;20079;-83
2021/11/13 04:27:31;;;;;;;13.23;2.25;;;;;;;9.62;100.00;100905.50;5014036;28;20038;-84
2021/11/13 04:29:57;;;;;;;18.17;2.65;;;;;;;9.65;100.00;100901.75;5013553;28;20041;-84
2021/11/13 04:32:22;;;;;;;16.40;2.28;;;;;;;9.63;100.00;100906.31;5013984;28;20040;-83
2021/11/13 04:37:22;;;;;;;13.63;2.25;;;;;;;9.55;100.00;100903.50;5013964;28;20037;-83
2021/11/13 04:39:48;;;;;;;15.52;2.53;;;;;;;9.50;100.00;100902.06;5013696;28;20138;-83
2021/11/13 04:42:15;;;;;;;18.77;1.95;;;;;;;9.47;100.00;100912.13;5013547;28;20370;-82
2021/11/13 04:44:41;;;;;;;22.60;3.47;;;;;;;9.45;100.00;100920.22;5013553;28;20096;-84
2021/11/13 04:47:08;;;;;;;12.18;1.83;;;;;;;9.43;100.00;100913.34;5012824;28;20470;-81
2021/11/13 04:49:33;;;;;;;13.70;2.55;;;;;;;9.41;100.00;100917.94;5013710;28;20060;-83
2021/11/13 04:52:01;;;;;;;15.90;2.70;;;;;;;9.41;100.00;100915.28;5013249;28;20533;-84
2021/11/13 04:54:27;;;;;;;14.88;2.25;;;;;;;9.41;100.00;100918.78;4995979;28;20030;-83
2021/11/13 04:56:53;;;;;;;21.50;2.72;;;;;;;9.43;100.00;100919.47;5013694;28;20041;-83
2021/11/13 04:59:19;;;;;;;14.10;2.42;;;;;;;9.42;100.00;100919.63;4995599;28;20033;-82
2021/11/13 05:01:44;;;;;;;19.73;2.97;;;;;;;9.43;100.00;100921.31;5013668;28;20080;-83
2021/11/13 05:04:10;;;;;;;16.48;2.58;;;;;;;9.43;100.00;100921.31;5013182;28;20105;-83
2021/11/13 05:06:35;;;;;;;19.52;2.50;;;;;;;9.44;100.00;100929.16;5013501;28;20026;-83
2021/11/13 05:09:00;;;;;;;22.45;3.13;;;;;;;9.46;100.00;100940.47;5013075;28;20409;-80
2021/11/13 05:11:26;;;;;;;10.63;1.95;;;;;;;9.48;100.00;100930.56;5013349;28;20022;-82
2021/11/13 05:13:52;;;;;;;9.70;2.50;;;;;;;9.50;100.00;100939.25;5013213;28;20044;-82
2021/11/13 05:16:17;;;;;;;7.70;2.03;;;;;;;9.50;100.00;100930.44;4995227;28;20038;-81
2021/11/13 05:18:42;;;;;;;10.63;2.10;;;;;;;9.51;100.00;100930.31;5013360;28;20463;-82
2021/11/13 05:21:08;;;;;;;8.85;2.72;;;;;;;9.47;100.00;100936.03;5012752;28;20029;-83
2021/11/13 05:23:33;;;;;;;14.07;2.35;;;;;;;9.46;100.00;100932.50;5013304;28;20038;-83
2021/11/13 05:25:59;;;;;;;10.52;2.47;;;;;;;9.45;100.00;100937.94;5013084;28;20034;-83
2021/11/13 05:28:25;;;;;;;11.10;2.10;;;;;;;9.44;100.00;100944.25;5012869;28;20546;-83
2021/11/13 05:30:50;;;;;;;10.52;2.40;;;;;;;9.44;100.00;100944.25;5013452;28;20040;-82
2021/11/13 05:33:15;;;;;;;16.17;2.90;;;;;;;9.46;100.00;100943.13;4995010;28;20034;-81
2021/11/13 05:35:41;;;;;;;10.40;2.58;;;;;;;9.48;100.00;100949.16;5012924;28;20038;-81
2021/11/13 05:38:06;;;;;;;23.58;2.92;;;;;;;9.45;100.00;100946.78;5012565;28;20463;-80
2021/11/13 05:40:32;;;;;;;16.35;2.88;;;;;;;9.45;100.00;100946.78;5013059;28;20466;-80
2021/11/13 05:42:57;;;;;;;19.45;2.85;;;;;;;9.44;100.00;100949.56;5013171;28;20044;-81
2021/11/13 05:45:23;;;;;;;18.73;2.80;;;;;;;9.42;100.00;100947.03;5013267;28;20037;-81
2021/11/13 05:47:49;;;;;;;13.40;2.40;;;;;;;9.42;100.00;100956.78;5013744;28;20058;-81
2021/11/13 05:50:16;;;;;;;15.70;3.08;;;;;;;9.42;100.00;100954.13;5012468;28;20437;-80
2021/11/13 05:52:43;;;;;;;15.02;2.65;;;;;;;9.41;100.00;100958.63;5012866;28;20064;-81
2021/11/13 05:55:11;;;;;;;14.43;2.88;;;;;;;9.41;100.00;100963.09;5012376;28;20038;-81
2021/11/13 05:57:36;;;;;;;12.43;2.00;;;;;;;9.42;100.00;100959.44;5012658;28;20095;-82
2021/11/13 06:00:08;;;;;;;9.75;1.98;;;;;;;9.40;100.00;100956.94;5012575;28;20117;-82
2021/11/13 06:02:34;;;;;;;16.63;2.47;;;;;;;9.43;100.00;100967.28;5012728;28;20030;-81
2021/11/13 06:04:59;;;;;;;21.63;2.15;;;;;;;9.44;100.00;100962.84;4995229;28;20040;-81
2021/11/13 06:07:24;;;;;;;18.77;2.05;;;;;;;9.45;100.00;100976.00;5012220;28;20463;-82
2021/11/13 06:09:50;;;;;;;19.15;2.58;;;;;;;9.46;100.00;100968.84;5012758;28;20053;-82
2021/11/13 06:12:15;;;;;;;9.32;2.10;;;;;;;9.47;100.00;100967.91;5012191;28;20034;-80
2021/11/13 06:14:41;;;;;;;17.98;2.38;;;;;;;9.48;100.00;100970.41;5012517;28;20069;-81
2021/11/13 06:17:06;;;;;;;18.55;3.25;;;;;;;9.51;100.00;100969.31;5012423;28;20041;-81
2021/11/13 06:19:31;;;;;;;13.63;1.95;;;;;;;9.50;100.00;100975.59;5012225;28;20620;-81
2021/11/13 06:21:57;;;;;;;15.02;2.65;;;;;;;9.48;100.00;100983.69;5012486;28;20093;-81
2021/11/13 06:24:22;;;;;;;12.40;1.95;;;;;;;9.48;100.00;100981.03;5012060;28;20084;-81
2021/11/13 06:26:47;;;;;;;10.82;2.20;;;;;;;9.50;100.00;100984.41;5012275;28;20453;-81
2021/11/13 06:29:13;;;;;;;14.50;2.45;;;;;;;9.50;100.00;100983.56;5011839;28;20096;-80
2021/11/13 06:31:38;;;;;;;14.38;2.30;;;;;;;9.51;100.00;100985.25;5012601;28;20058;-80
2021/11/13 06:34:04;;;;;;;13.93;2.35;;;;;;;9.50;100.00;100997.69;5012543;28;20033;-80
2021/11/13 06:36:29;;;;;;;16.90;3.17;;;;;;;9.51;100.00;100998.53;5012175;28;20784;-82
2021/11/13 06:38:55;;;;;;;18.35;3.00;;;;;;;9.46;100.00;100996.25;5012692;28;20034;-83
2021/11/13 06:41:25;;;;;;;13.50;2.63;;;;;;;9.47;100.00;100999.75;5011772;28;20385;-82
2021/11/13 06:43:50;;;;;;;11.35;2.67;;;;;;;9.49;100.00;101005.78;5012283;28;20038;-81
2021/11/13 06:46:16;;;;;;;18.08;3.42;;;;;;;9.51;100.00;101007.34;4996105;28;20044;-79
2021/11/13 06:48:41;;;;;;;17.45;3.60;;;;;;;9.52;100.00;101019.66;5015661;28;20557;-82
2021/11/13 06:51:06;;;;;;;19.63;3.70;;;;;;;9.53;100.00;101010.72;4998436;28;20441;-79
2021/11/13 06:53:32;;;;;;;12.05;3.28;;;;;;;9.53;100.00;101016.03;5015271;28;20044;-80
2021/11/13 06:55:57;;;;;;;10.80;3.60;;;;;;;9.52;100.00;101024.13;5015447;28;20067;-80
2021/11/13 06:58:23;;;;;;;17.52;3.80;;;;;;;9.48;100.00;101028.00;4997552;28;20092;-80
2021/11/13 07:00:48;;;;;;;16.38;3.65;;;;;;;9.47;100.00;101028.97;5016243;28;20377;-79
2021/11/13 07:03:14;;;;;;;10.52;3.40;;;;;;;9.45;100.00;101034.41;4997690;28;20030;-77
2021/11/13 07:05:40;;;;;;;12.18;3.30;;;;;;;9.44;100.00;101038.03;5015379;28;20030;-80
2021/11/13 07:08:05;;;;;;;14.98;4.10;;;;;;;9.44;100.00;101043.34;5015460;28;20095;-80
2021/11/13 07:10:30;;;;;;;17.52;3.95;;;;;;;9.45;100.00;101044.19;5014933;28;20034;-80
2021/11/13 07:12:56;;;;;;;17.50;3.90;;;;;;;9.44;100.00;101048.66;5015197;28;20116;-79
2021/11/13 07:15:24;;;;;;;17.30;3.80;;;;;;;9.42;100.00;101063.03;5014949;28;20034;-79
2021/11/13 07:17:50;;;;;;;12.35;3.53;;;;;;;9.41;100.00;101058.72;5015333;28;20091;-79
2021/11/13 07:20:16;;;;;;;15.93;3.53;;;;;;;9.40;100.00;101076.44;5014704;28;20042;-76
2021/11/13 07:22:45;;;;;;;16.98;3.75;;;;;;;9.43;100.00;101078.84;5015110;28;20030;-79
2021/11/13 07:25:14;;;;;;;19.23;4.78;;;;;;;9.45;100.00;101076.06;5015053;28;20022;-80
2021/11/13 07:27:42;;;;;;;13.48;4.03;;;;;;;9.46;100.00;101083.91;4996782;28;20065;-80
2021/11/13 07:30:08;;;;;;;19.23;5.25;;;;;;;9.45;100.00;101087.53;5015144;28;20034;-80
2021/11/13 07:32:34;;;;;;;14.40;4.35;;;;;;;9.46;100.00;101091.84;5014447;28;20435;-80
2021/11/13 07:35:00;;;;;;;11.18;4.32;;;;;;;9.46;100.00;101091.84;4997462;28;20144;-80
2021/11/13 07:37:26;;;;;;;15.13;4.28;;;;;;;9.46;100.00;101091.03;5014482;28;20462;-81
2021/11/13 07:39:53;;;;;;;15.35;4.40;;;;;;;9.45;100.00;101098.16;5014880;28;20034;-81
2021/11/13 07:42:19;;;;;;;19.90;4.18;;;;;;;9.44;100.00;101108.91;5014240;28;20470;-80
2021/11/13 07:44:44;;;;;;;12.23;4.05;;;;;;;9.47;100.00;101103.34;5015206;28;20088;-80
2021/11/13 07:47:10;;;;;;;13.70;4.15;;;;;;;9.49;100.00;101112.88;5014730;28;20050;-80
2021/11/13 07:49:35;;;;;;;22.75;4.20;;;;;;;9.53;100.00;101111.66;5014419;28;20359;-80
2021/11/13 07:52:01;;;;;;;19.70;4.38;;;;;;;9.54;100.00;101107.19;5014781;28;20034;-80
2021/11/13 07:54:26;;;;;;;13.85;4.13;;;;;;;9.59;100.00;101112.13;5014099;28;20092;-80
2021/11/13 07:56:52;;;;;;;18.15;4.03;;;;;;;9.67;100.00;101102.56;5014378;28;20104;-80
2021/11/13 07:59:17;;;;;;;20.40;4.03;;;;;;;9.75;100.00;101109.03;5014928;28;20471;-80
2021/11/13 08:01:43;;;;;;;12.80;3.55;;;;;;;9.78;100.00;101112.28;5014104;28;20064;-80
2021/11/13 08:04:09;;;;;;;17.20;4.15;;;;;;;9.83;100.00;101117.22;5014351;28;20030;-80
2021/11/13 08:06:34;;;;;;;17.17;3.55;;;;;;;9.92;100.00;101119.09;5013784;28;20034;-80
2021/11/13 08:09:00;;;;;;;14.60;3.58;;;;;;;9.95;100.00;101126.00;5014400;28;20488;-82
2021/11/13 08:11:25;;;;;;;9.63;2.83;;;;;;;9.99;100.00;101119.47;4996247;28;20053;-84
2021/11/13 08:13:51;;;;;;;20.08;3.10;;;;;;;10.01;100.00;101125.47;5014888;28;20156;-83
2021/11/13 08:16:16;;;;;;;16.15;3.50;;;;;;;10.01;100.00;101133.44;5014395;28;20084;-83
2021/11/13 08:18:42;;;;;;;12.20;3.03;;;;;;;10.03;100.00;101136.81;5013564;28;20038;-85
2021/11/13 08:21:07;;;;;;;13.80;3.03;;;;;;;10.04;100.00;101134.03;5014195;28;20041;-78
2021/11/13 08:23:33;;;;;;;21.25;3.75;;;;;;;10.07;100.00;101138.25;5014067;28;20038;-83
2021/11/13 08:25:59;;;;;;;23.35;3.78;;;;;;;10.10;100.00;101143.31;5014151;28;20049;-82
2021/11/13 08:28:25;;;;;;;18.92;3.40;;;;;;;10.17;100.00;101149.81;5013671;28;20167;-82
2021/11/13 08:30:52;;;;;;;22.35;3.08;;;;;;;10.20;100.00;101154.88;5013962;28;20034;-82
2021/11/13 08:33:18;;;;;;;19.40;3.70;;;;;;;10.20;100.00;101157.53;4996403;28;20610;-82
2021/11/13 08:35:46;;;;;;;19.27;3.10;;;;;;;10.20;100.00;101154.88;5013782;28;20038;-82
2021/11/13 08:38:20;;;;;;;13.18;3.47;;;;;;;10.24;100.00;101158.97;5013839;28;20466;-81
2021/11/13 08:40:47;;;;;;;18.42;2.45;;;;;;;10.32;100.00;101165.47;5013217;28;20089;-80
2021/11/13 08:43:13;;;;;;;14.00;2.75;;;;;;;10.33;100.00;101161.81;5013720;28;20034;-77
2021/11/13 08:45:39;;;;;;;18.15;2.33;;;;;;;10.38;100.00;101167.63;5013043;28;20076;-78
2021/11/13 08:48:05;;;;;;;18.70;2.13;;;;;;;10.42;100.00;101166.41;4996122;28;20133;-78
2021/11/13 08:50:31;;;;;;;14.80;2.20;;;;;;;10.46;100.00;101175.78;5013389;28;20041;-81
2021/11/13 08:52:59;;;;;;;12.10;2.70;;;;;;;10.64;100.00;101177.84;5013714;28;20061;-82
2021/11/13 08:55:27;;;;;;;15.73;2.08;;;;;;;10.84;100.00;101177.00;5013932;28;20037;-80
2021/11/13 08:57:54;;;;;;;8.55;1.60;;;;;;;10.92;100.00;101177.16;5011525;28;20037;-82
2021/11/13 09:00:25;;;;;;;5.47;1.98;;;;;;;11.01;100.00;101186.16;5015685;28;20529;-81
2021/11/13 09:02:53;;;;;;;10.57;1.63;;;;;;;11.13;100.00;101186.09;5019105;28;20089;-80
2021/11/13 09:05:19;;;;;;;5.32;1.40;;;;;;;11.20;100.00;101180.09;5021591;28;20117;-81
2021/11/13 09:07:44;;;;;;;6.07;1.48;;;;;;;11.24;100.00;101186.84;5014495;28;20168;-85
2021/11/13 09:10:10;;;;;;;6.15;1.55;;;;;;;11.22;99.92;101188.78;5010743;28;20034;-80
2021/11/13 09:12:37;;;;;;;4.85;1.38;;;;;;;11.12;99.06;101187.88;5010842;28;20044;-82
2021/11/13 09:15:11;;;;;;;6.82;1.30;;;;;;;11.04;100.00;101199.22;5011629;28;20040;-85
2021/11/13 09:17:36;;;;;;;8.30;1.63;;;;;;;10.97;99.87;101205.22;5011038;28;20486;-85
2021/11/13 09:20:03;;;;;;;9.57;2.20;;;;;;;10.87;100.00;101200.69;4994734;28;20068;-83
2021/11/13 09:22:29;;;;;;;5.40;1.77;;;;;;;10.81;100.00;101205.69;5019745;28;20033;-81
2021/11/13 09:24:54;;;;;;;8.43;1.88;;;;;;;10.77;100.00;101200.63;5016280;28;20465;-81
2021/11/13 09:27:20;;;;;;;10.52;1.92;;;;;;;10.73;100.00;101199.22;5010473;28;20120;-86
2021/11/13 09:29:45;;;;;;;5.35;1.80;;;;;;;10.75;100.00;101210.56;5010079;28;20064;-81
2021/11/13 09:32:10;;;;;;;3.17;1.50;;;;;;;10.77;100.00;101202.44;5009795;28;20037;-84
2021/11/13 09:34:36;;;;;;;5.15;1.65;;;;;;;10.76;100.00;101201.63;5010013;28;20497;-83
2021/11/13 09:37:02;;;;;;;7.40;1.88;;;;;;;10.77;100.00;101210.44;5010247;28;20628;-83
2021/11/13 09:39:27;;;;;;;4.90;1.88;;;;;;;10.76;100.00;101212.25;5010236;28;20140;-81
2021/11/13 09:41:53;;;;;;;9.18;1.50;;;;;;;10.77;100.00;101213.09;5009762;28;20125;-79
2021/11/13 09:44:19;;;;;;;5.50;1.50;;;;;;;10.82;100.00;101218.03;5009647;28;20038;-80
2021/11/13 09:46:48;;;;;;;12.52;1.63;;;;;;;10.83;100.00;101223.22;5034753;28;20036;-80
2021/11/13 09:49:15;;;;;;;7.88;1.60;;;;;;;10.86;100.00;101228.28;5047518;28;20403;-81
2021/11/13 09:51:42;;;;;;;9.82;1.90;;;;;;;10.87;100.00;101229.13;5051293;28;20086;-82
2021/11/13 09:54:07;;;;;;;10.02;1.67;;;;;;;10.91;100.00;101233.19;5052381;28;20152;-83
2021/11/13 09:56:36;;;;;;;10.40;2.10;;;;;;;10.97;100.00;101237.16;5052692;28;20070;-83
2021/11/13 09:59:03;;;;;;;8.98;1.60;;;;;;;11.05;100.00;101237.34;5052434;28;20041;-81
2021/11/13 10:01:29;;;;;;;8.55;1.88;;;;;;;11.13;100.00;101242.84;5052399;28;20044;-84
2021/11/13 10:03:54;;;;;;;8.43;1.55;;;;;;;11.18;100.00;101238.00;5034350;28;20078;-88
2021/11/13 10:06:20;;;;;;;7.63;1.58;;;;;;;11.22;100.00;101247.38;5052836;28;20048;-85
2021/11/13 10:08:49;;;;;;;10.23;1.60;;;;;;;11.25;99.98;101236.44;5052143;28;20029;-84
2021/11/13 10:11:22;;;;;;;8.40;1.73;;;;;;;11.32;100.00;101239.44;5052325;28;20167;-76
2021/11/13 10:13:53;;;;;;;4.20;1.58;;;;;;;11.30;99.82;101249.41;5051866;28;20037;-82
2021/11/13 10:16:38;;;;;;;;;;;;;;;11.30;100.00;101254.72;5030142;28;20041;-79
2021/11/13 10:19:07;;;;;;;6.57;1.40;;;;;;;11.33;100.00;101259.78;5009683;28;19913;-81
2021/11/13 10:21:35;;;;;;;9.02;1.90;;;;;;;11.37;100.00;101245.19;5012103;28;20065;-80
2021/11/13 10:24:18;;;;;;;3.55;1.23;;;;;;;11.42;99.34;101256.31;5013200;28;20491;-81
2021/11/13 10:26:48;;;;;;;3.00;1.15;;;;;;;11.62;97.88;101249.22;5013487;28;20022;-81
2021/11/13 10:29:17;;;;;;;3.60;1.20;;;;;;;11.80;96.40;101256.56;5013104;28;20029;-83
2021/11/13 10:31:44;;;;;;;6.82;1.27;;;;;;;11.90;95.63;101261.91;5013160;28;20034;-78
2021/11/13 10:34:16;;;;;;;5.15;1.30;;;;;;;11.83;95.19;101264.28;5013499;28;20425;-80
2021/11/13 10:36:45;;;;;;;4.43;1.45;;;;;;;11.63;95.12;101261.56;5012937;28;20112;-82
2021/11/13 10:39:16;;;;;;;4.25;0.98;;;;;;;11.47;95.38;101263.91;5012873;28;20100;-80
2021/11/13 10:41:43;;;;;;;4.80;1.10;;;;;;;11.29;95.86;101263.69;5012738;28;20382;-79
2021/11/13 10:44:08;;;;;;;7.68;1.65;;;;;;;11.20;97.18;101256.50;5013270;28;20506;-81
2021/11/13 10:46:33;;;;;;;3.58;1.10;;;;;;;11.29;97.01;101267.19;5013131;28;20144;-77
2021/11/13 10:48:59;;;;;;;4.50;1.33;;;;;;;11.37;97.60;101258.50;5011313;28;20506;-82
2021/11/13 10:51:33;;;;;;;6.43;1.30;;;;;;;11.47;97.67;101267.38;5011456;28;20057;-78
2021/11/13 10:54:11;;;;;;;5.32;1.65;;;;;;;11.58;97.12;101269.09;5012927;28;20034;-75
2021/11/13 10:56:42;;;;;;;3.92;1.33;;;;;;;11.61;96.71;101270.66;5013179;28;20459;-80
2021/11/13 10:59:08;;;;;;;6.40;1.50;;;;;;;11.69;97.82;101276.19;5012899;28;20103;-75
2021/11/13 11:01:45;;;;;;;6.93;1.70;;;;;;;11.72;97.78;101270.56;5012792;28;20478;-84
2021/11/13 11:04:14;;;;;;;6.32;1.60;;;;;;;11.75;96.83;101272.13;5012369;28;20026;-76
2021/11/13 11:06:46;;;;;;;4.80;1.60;;;;;;;11.88;96.85;101269.19;5012363;28;20037;-77
2021/11/13 11:09:39;;;;;;;5.13;1.40;;;;;;;12.16;97.04;101271.09;5012739;28;20561;-76
2021/11/13 11:12:10;;;;;;;5.20;1.60;;;;;;;12.39;95.16;101280.66;5009670;28;20074;-76
2021/11/13 11:14:42;;;;;;;9.65;1.55;;;;;;;12.53;93.70;101282.91;5012765;28;20120;-75
2021/11/13 11:17:13;;;;;;;7.65;1.95;;;;;;;12.57;91.71;101281.66;5012597;28;20088;-76